createdAt,value
2023-03-20T00:01:17.491Z,100277.81
2023-03-20T00:03:45.874Z,100279.50
2023-03-20T00:06:16.087Z,100282.81
2023-03-20T00:08:45.781Z,100277.53
2023-03-20T00:11:24.782Z,100278.19
2023-03-20T00:13:52.947Z,100280.00
2023-03-20T00:16:21.384Z,100279.53
2023-03-20T00:18:49.824Z,100290.19
2023-03-20T00:21:18.905Z,100291.28
2023-03-20T00:23:47.862Z,100291.31
2023-03-20T00:26:18.886Z,100291.22
2023-03-20T00:28:49.134Z,100290.75
2023-03-20T00:31:22.268Z,100289.75
2023-03-20T00:33:50.274Z,100299.63
2023-03-20T00:36:19.838Z,100302.03
2023-03-20T00:38:48.858Z,100303.41
2023-03-20T00:41:23.246Z,100301.19
2023-03-20T00:43:54.591Z,100303.50
2023-03-20T00:46:22.641Z,100301.06
2023-03-20T00:48:50.970Z,100300.28
2023-03-20T00:51:19.061Z,100310.28
2023-03-20T00:53:47.435Z,100309.03
2023-03-20T00:56:29.923Z,100309.03
2023-03-20T00:58:59.905Z,100311.56
2023-03-20T01:01:27.931Z,100315.41
2023-03-20T01:03:55.932Z,100313.47
2023-03-20T01:06:24.611Z,100308.91
2023-03-20T01:08:52.299Z,100303.94
2023-03-20T01:11:23.052Z,100294.56
2023-03-20T01:13:52.375Z,100304.41
2023-03-20T01:16:25.861Z,100299.94
2023-03-20T01:18:54.316Z,100297.66
2023-03-20T01:21:22.628Z,100299.19
2023-03-20T01:23:51.499Z,100305.53
2023-03-20T01:26:28.756Z,100307.47
2023-03-20T01:28:56.826Z,100305.72
2023-03-20T01:31:26.845Z,100300.69
2023-03-20T01:33:54.877Z,100305.78
2023-03-20T01:36:24.238Z,100307.56
2023-03-20T01:38:55.221Z,100311.50
2023-03-20T01:41:24.523Z,100306.59
2023-03-20T01:43:53.460Z,100312.94
2023-03-20T01:46:24.457Z,100316.81
2023-03-20T01:49:02.248Z,100315.06
2023-03-20T01:51:33.074Z,100311.28
2023-03-20T01:54:08.343Z,100306.81
2023-03-20T01:56:46.505Z,100305.63
2023-03-20T01:59:18.674Z,100309.31
2023-03-20T02:01:46.877Z,100309.59
2023-03-20T02:04:23.949Z,100308.09
2023-03-20T02:06:58.936Z,100313.41
2023-03-20T02:09:36.328Z,100310.34
2023-03-20T02:12:08.677Z,100312.84
2023-03-20T02:14:37.594Z,100313.75
2023-03-20T02:17:19.063Z,100318.88
2023-03-20T02:20:00.970Z,100322.75
2023-03-20T02:22:48.057Z,100321.72
2023-03-20T02:25:28.333Z,100326.81
2023-03-20T02:28:08.990Z,100325.69
2023-03-20T02:30:44.882Z,100324.03
2023-03-20T02:33:34.013Z,100325.50
2023-03-20T02:36:32.353Z,100323.97
2023-03-20T02:39:09.487Z,100327.22
2023-03-20T02:41:41.371Z,100324.63
2023-03-20T02:44:11.774Z,100317.38
2023-03-20T02:46:44.818Z,100330.66
2023-03-20T02:49:25.339Z,100322.16
2023-03-20T02:51:58.287Z,100330.53
2023-03-20T02:54:32.329Z,100332.56
2023-03-20T02:57:03.330Z,100334.06
2023-03-20T02:59:35.500Z,100339.03
2023-03-20T03:02:06.900Z,100331.84
2023-03-20T03:04:37.277Z,100340.16
2023-03-20T03:07:08.073Z,100333.91
2023-03-20T03:09:40.410Z,100331.91
2023-03-20T03:12:12.565Z,100341.91
2023-03-20T03:14:43.028Z,100333.81
2023-03-20T03:17:17.110Z,100331.38
2023-03-20T03:19:48.166Z,100327.84
2023-03-20T03:22:17.075Z,100320.59
2023-03-20T03:24:48.162Z,100331.56
2023-03-20T03:27:20.407Z,100329.50
2023-03-20T03:29:51.733Z,100327.84
2023-03-20T03:32:24.543Z,100325.13
2023-03-20T03:34:52.884Z,100324.81
2023-03-20T03:37:25.856Z,100327.97
2023-03-20T03:39:58.893Z,100334.56
2023-03-20T03:42:31.161Z,100326.59
2023-03-20T03:45:01.215Z,100330.13
2023-03-20T03:47:33.159Z,100342.78
2023-03-20T03:50:02.884Z,100339.81
2023-03-20T03:52:32.988Z,100336.47
2023-03-20T03:55:07.656Z,100337.41
2023-03-20T03:57:38.226Z,100339.16
2023-03-20T04:00:11.922Z,100349.56
2023-03-20T04:02:43.833Z,100344.09
2023-03-20T04:05:12.959Z,100349.94
2023-03-20T04:07:45.736Z,100347.03
2023-03-20T04:10:15.014Z,100348.59
2023-03-20T04:12:44.158Z,100348.59
2023-03-20T04:15:13.883Z,100355.28
2023-03-20T04:17:43.038Z,100348.94
2023-03-20T04:20:13.346Z,100349.84
2023-03-20T04:22:42.035Z,100342.88
2023-03-20T04:25:18.868Z,100352.16
2023-03-20T04:27:47.759Z,100349.84
2023-03-20T04:30:24.917Z,100351.16
2023-03-20T04:33:11.924Z,100354.06
2023-03-20T04:36:04.080Z,100356.06
2023-03-20T04:38:32.126Z,100358.84
2023-03-20T04:41:03.681Z,100353.53
2023-03-20T04:43:33.327Z,100356.06
2023-03-20T04:46:01.897Z,100366.72
2023-03-20T04:48:29.658Z,100361.00
2023-03-20T04:50:57.824Z,100375.97
2023-03-20T04:53:44.032Z,100373.22
2023-03-20T04:56:13.490Z,100371.53
2023-03-20T04:58:41.621Z,100380.91
2023-03-20T05:01:10.757Z,100383.00
2023-03-20T05:03:39.474Z,100389.03
2023-03-20T05:06:08.108Z,100388.31
2023-03-20T05:08:37.901Z,100398.75
2023-03-20T05:11:07.932Z,100395.78
2023-03-20T05:13:57.415Z,100391.44
2023-03-20T05:16:36.338Z,100396.75
2023-03-20T05:19:23.359Z,100398.31
2023-03-20T05:21:59.546Z,100390.44
2023-03-20T05:24:49.249Z,100387.28
2023-03-20T05:27:25.559Z,100381.72
2023-03-20T05:30:14.629Z,100374.88
2023-03-20T05:33:08.318Z,100379.63
2023-03-20T05:35:53.844Z,100378.34
2023-03-20T05:38:32.773Z,100371.22
2023-03-20T05:41:23.948Z,100358.38
2023-03-20T05:44:19.141Z,100352.91
2023-03-20T05:46:59.862Z,100361.25
2023-03-20T05:49:53.690Z,100378.22
2023-03-20T05:52:50.251Z,100377.84
2023-03-20T05:55:37.023Z,100376.16
2023-03-20T05:58:24.967Z,100374.84
2023-03-20T06:01:04.541Z,100382.63
2023-03-20T06:03:58.265Z,100395.69
2023-03-20T06:06:47.408Z,100382.22
2023-03-20T06:09:15.877Z,100385.59
2023-03-20T06:11:44.341Z,100391.84
2023-03-20T06:14:12.581Z,100397.41
2023-03-20T06:16:43.298Z,100393.53
2023-03-20T06:19:13.549Z,100398.94
2023-03-20T06:21:42.738Z,100405.50
2023-03-20T06:24:14.722Z,100399.34
2023-03-20T06:26:43.186Z,100403.53
2023-03-20T06:29:13.271Z,100408.53
2023-03-20T06:31:41.026Z,100410.19
2023-03-20T06:34:16.619Z,100413.66
2023-03-20T06:36:47.089Z,100422.34
2023-03-20T06:39:21.871Z,100419.09
2023-03-20T06:41:50.191Z,100417.34
2023-03-20T06:44:22.198Z,100429.03
2023-03-20T06:47:15.921Z,100424.88
2023-03-20T06:49:46.113Z,100429.03
2023-03-20T06:52:16.713Z,100428.44
2023-03-20T06:54:51.382Z,100429.03
2023-03-20T06:57:22.290Z,100427.72
2023-03-20T06:59:50.836Z,100431.19
2023-03-20T07:02:19.057Z,100420.84
2023-03-20T07:04:49.140Z,100416.50
2023-03-20T07:07:17.221Z,100409.66
2023-03-20T07:09:45.891Z,100407.00
2023-03-20T07:12:18.270Z,100399.16
2023-03-20T07:14:48.897Z,100408.19
2023-03-20T07:17:20.764Z,100406.94
2023-03-20T07:19:50.362Z,100417.69
2023-03-20T07:22:21.917Z,100418.19
2023-03-20T07:24:51.409Z,100423.03
2023-03-20T07:27:26.220Z,100429.34
2023-03-20T07:29:57.229Z,100418.09
2023-03-20T07:32:27.195Z,100414.13
2023-03-20T07:34:57.459Z,100420.00
2023-03-20T07:37:25.812Z,100422.81
2023-03-20T07:40:01.426Z,100420.78
2023-03-20T07:42:34.264Z,100421.13
2023-03-20T07:45:12.251Z,100422.69
2023-03-20T07:47:40.467Z,100415.09
2023-03-20T07:50:10.662Z,100427.34
2023-03-20T07:52:38.616Z,100428.44
2023-03-20T07:55:08.022Z,100425.09
2023-03-20T07:57:40.574Z,100432.56
2023-03-20T08:00:09.553Z,100429.41
2023-03-20T08:02:40.267Z,100428.09
2023-03-20T08:05:11.628Z,100422.94
2023-03-20T08:07:39.743Z,100428.31
2023-03-20T08:10:08.230Z,100428.75
2023-03-20T08:12:36.378Z,100429.22
2023-03-20T08:15:04.896Z,100424.13
2023-03-20T08:17:33.479Z,100422.34
2023-03-20T08:20:01.618Z,100424.50
2023-03-20T08:22:31.272Z,100433.94
2023-03-20T08:24:59.236Z,100435.56
2023-03-20T08:27:27.585Z,100441.19
2023-03-20T08:29:55.448Z,100461.63
2023-03-20T08:32:27.237Z,100452.06
2023-03-20T08:34:55.852Z,100449.63
2023-03-20T08:37:25.787Z,100446.88
2023-03-20T08:39:55.716Z,100450.66
2023-03-20T08:42:24.343Z,100450.72
2023-03-20T08:44:52.969Z,100452.91
2023-03-20T08:47:20.808Z,100438.66
2023-03-20T08:49:50.244Z,100432.75
2023-03-20T08:52:18.802Z,100440.38
2023-03-20T08:54:47.246Z,100435.75
2023-03-20T08:57:17.618Z,100444.06
2023-03-20T08:59:48.090Z,100447.00
2023-03-20T09:02:16.628Z,100464.06
2023-03-20T09:04:44.812Z,100473.94
2023-03-20T09:07:13.190Z,100478.78
2023-03-20T09:09:41.382Z,100482.97
2023-03-20T09:12:09.854Z,100487.81
2023-03-20T09:14:40.963Z,100489.69
2023-03-20T09:17:09.094Z,100489.22
2023-03-20T09:19:39.672Z,100480.72
2023-03-20T09:22:07.972Z,100476.34
2023-03-20T09:24:36.896Z,100480.06
2023-03-20T09:27:05.058Z,100464.75
2023-03-20T09:29:33.467Z,100468.94
2023-03-20T09:32:03.291Z,100467.44
2023-03-20T09:34:31.860Z,100482.19
2023-03-20T09:37:02.356Z,100477.84
2023-03-20T09:39:30.978Z,100483.03
2023-03-20T09:42:02.164Z,100478.22
2023-03-20T09:44:45.841Z,100481.00
2023-03-20T09:47:21.561Z,100478.59
2023-03-20T09:49:56.552Z,100483.97
2023-03-20T09:52:30.328Z,100490.22
2023-03-20T09:55:00.037Z,100512.13
2023-03-20T09:57:31.586Z,100520.09
2023-03-20T10:00:02.555Z,100514.25
2023-03-20T10:02:46.094Z,100520.13
2023-03-20T10:05:18.729Z,100516.91
2023-03-20T10:07:47.030Z,100520.53
2023-03-20T10:10:15.541Z,100515.03
2023-03-20T10:13:00.831Z,100520.78
2023-03-20T10:15:41.763Z,100522.22
2023-03-20T10:18:18.402Z,100522.22
2023-03-20T10:20:51.224Z,100525.59
2023-03-20T10:23:26.326Z,100525.03
2023-03-20T10:25:57.829Z,100518.22
2023-03-20T10:28:31.856Z,100522.28
2023-03-20T10:31:08.263Z,100522.59
2023-03-20T10:33:43.810Z,100515.66
2023-03-20T10:36:21.751Z,100516.53
2023-03-20T10:38:51.657Z,100514.16
2023-03-20T10:41:22.027Z,100507.91
2023-03-20T10:43:51.365Z,100512.56
2023-03-20T10:46:21.863Z,100515.97
2023-03-20T10:48:53.795Z,100513.53
2023-03-20T10:51:23.651Z,100513.09
2023-03-20T10:53:54.534Z,100510.34
2023-03-20T10:56:27.841Z,100508.56
2023-03-20T10:58:58.420Z,100504.41
2023-03-20T11:01:29.213Z,100505.13
2023-03-20T11:03:59.576Z,100504.59
2023-03-20T11:06:29.650Z,100499.72
2023-03-20T11:08:58.506Z,100497.28
2023-03-20T11:11:28.103Z,100498.00
2023-03-20T11:13:57.053Z,100494.41
2023-03-20T11:16:27.968Z,100493.16
2023-03-20T11:18:56.767Z,100488.06
2023-03-20T11:21:27.909Z,100477.88
2023-03-20T11:23:56.619Z,100484.75
2023-03-20T11:26:36.104Z,100478.50
2023-03-20T11:29:06.596Z,100483.28
2023-03-20T11:31:36.097Z,100482.66
2023-03-20T11:34:11.879Z,100484.31
2023-03-20T11:36:41.941Z,100482.28
2023-03-20T11:39:14.139Z,100486.81
2023-03-20T11:41:48.742Z,100492.63
2023-03-20T11:44:26.716Z,100478.16
2023-03-20T11:46:58.386Z,100485.34
2023-03-20T11:49:27.745Z,100482.19
2023-03-20T11:51:57.758Z,100472.16
2023-03-20T11:54:26.238Z,100474.41
2023-03-20T11:56:56.224Z,100480.97
2023-03-20T11:59:27.841Z,100470.72
2023-03-20T12:01:56.741Z,100458.31
2023-03-20T12:04:28.934Z,100453.19
2023-03-20T12:07:01.663Z,100449.63
2023-03-20T12:09:41.377Z,100452.19
2023-03-20T12:12:15.016Z,100443.44
2023-03-20T12:14:47.083Z,100432.59
2023-03-20T12:17:32.193Z,100429.69
2023-03-20T12:20:04.689Z,100428.28
2023-03-20T12:22:36.089Z,100419.78
2023-03-20T12:25:12.780Z,100414.38
2023-03-20T12:27:46.178Z,100417.84
2023-03-20T12:30:16.312Z,100404.97
2023-03-20T12:32:49.717Z,100395.34
2023-03-20T12:35:19.716Z,100410.41
2023-03-20T12:37:49.184Z,100417.16
2023-03-20T12:40:19.067Z,100408.03
2023-03-20T12:42:54.214Z,100399.69
2023-03-20T12:45:22.959Z,100403.19
2023-03-20T12:48:06.069Z,100393.25
2023-03-20T12:50:35.665Z,100401.06
2023-03-20T12:53:13.579Z,100397.06
2023-03-20T12:55:47.314Z,100397.81
2023-03-20T12:58:25.126Z,100394.34
2023-03-20T13:00:55.544Z,100389.28
2023-03-20T13:03:36.153Z,100395.03
2023-03-20T13:06:11.007Z,100396.53
2023-03-20T13:08:54.295Z,100394.66
2023-03-20T13:11:27.920Z,100394.34
2023-03-20T13:13:57.652Z,100393.84
2023-03-20T13:16:33.852Z,100390.72
2023-03-20T13:19:06.046Z,100391.03
2023-03-20T13:21:38.210Z,100386.66
2023-03-20T13:24:18.606Z,100385.97
2023-03-20T13:26:51.409Z,100382.22
2023-03-20T13:29:23.845Z,100384.66
2023-03-20T13:31:58.552Z,100373.41
2023-03-20T13:34:37.037Z,100377.09
2023-03-20T13:37:22.907Z,100370.97
2023-03-20T13:39:59.888Z,100368.19
2023-03-20T13:42:33.412Z,100363.09
2023-03-20T13:45:07.380Z,100360.63
2023-03-20T13:47:37.558Z,100364.47
2023-03-20T13:50:25.432Z,100359.72
2023-03-20T13:52:58.430Z,100358.03
2023-03-20T13:55:32.960Z,100353.22
2023-03-20T13:58:12.039Z,100353.66
2023-03-20T14:00:43.794Z,100352.31
2023-03-20T14:03:19.319Z,100356.50
2023-03-20T14:05:47.797Z,100354.81
2023-03-20T14:08:24.114Z,100359.97
2023-03-20T14:10:56.800Z,100355.34
2023-03-20T14:13:28.112Z,100346.63
2023-03-20T14:15:58.126Z,100336.06
2023-03-20T14:18:27.195Z,100338.50
2023-03-20T14:20:56.958Z,100338.88
2023-03-20T14:23:31.986Z,100343.38
2023-03-20T14:26:00.927Z,100342.03
2023-03-20T14:28:34.693Z,100341.25
2023-03-20T14:31:22.820Z,100349.56
2023-03-20T14:34:00.264Z,100332.59
2023-03-20T14:36:32.253Z,100346.28
2023-03-20T14:39:08.426Z,100346.66
2023-03-20T14:41:41.017Z,100342.28
2023-03-20T14:44:21.106Z,100338.25
2023-03-20T14:46:52.421Z,100339.84
2023-03-20T14:49:48.155Z,100343.25
2023-03-20T14:52:24.284Z,100347.69
2023-03-20T14:54:55.552Z,100345.63
2023-03-20T14:57:30.542Z,100345.69
2023-03-20T15:00:00.321Z,100342.66
2023-03-20T15:02:28.906Z,100346.81
2023-03-20T15:04:57.623Z,100353.19
2023-03-20T15:07:27.110Z,100350.66
2023-03-20T15:09:56.697Z,100346.84
2023-03-20T15:12:25.767Z,100346.63
2023-03-20T15:14:56.484Z,100343.41
2023-03-20T15:17:26.736Z,100344.84
2023-03-20T15:20:07.729Z,100343.88
2023-03-20T15:22:35.878Z,100344.34
2023-03-20T15:25:04.864Z,100342.94
2023-03-20T15:27:33.409Z,100353.88
2023-03-20T15:30:02.141Z,100351.91
2023-03-20T15:32:33.967Z,100345.84
2023-03-20T15:35:01.939Z,100345.53
2023-03-20T15:37:30.930Z,100360.00
2023-03-20T15:40:00.623Z,100349.69
2023-03-20T15:42:28.680Z,100353.22
2023-03-20T15:44:58.105Z,100353.03
2023-03-20T15:47:27.375Z,100357.28
2023-03-20T15:49:58.617Z,100362.84
2023-03-20T15:52:29.156Z,100355.53
2023-03-20T15:54:58.215Z,100354.91
2023-03-20T15:57:28.934Z,100359.06
2023-03-20T15:59:56.715Z,100350.69
2023-03-20T16:02:25.185Z,100358.63
2023-03-20T16:04:55.085Z,100358.22
2023-03-20T16:07:27.629Z,100366.84
2023-03-20T16:09:55.727Z,100358.22
2023-03-20T16:12:23.622Z,100358.34
2023-03-20T16:14:52.439Z,100352.25
2023-03-20T16:17:21.222Z,100356.91
2023-03-20T16:19:49.732Z,100350.47
2023-03-20T16:22:23.369Z,100370.56
2023-03-20T16:24:55.581Z,100368.88
2023-03-20T16:27:28.625Z,100360.53
2023-03-20T16:29:57.087Z,100362.19
2023-03-20T16:32:31.231Z,100355.50
2023-03-20T16:35:01.652Z,100360.19
2023-03-20T16:37:31.022Z,100361.63
2023-03-20T16:40:18.147Z,100356.34
2023-03-20T16:42:46.832Z,100362.38
2023-03-20T16:45:21.546Z,100366.13
2023-03-20T16:47:49.864Z,100371.94
2023-03-20T16:50:22.171Z,100364.44
2023-03-20T16:52:52.522Z,100369.22
2023-03-20T16:55:25.432Z,100368.00
2023-03-20T16:57:56.329Z,100378.47
2023-03-20T17:00:26.236Z,100379.31
2023-03-20T17:03:02.627Z,100378.66
2023-03-20T17:05:37.009Z,100384.69
2023-03-20T17:08:11.791Z,100390.28
2023-03-20T17:10:43.961Z,100387.00
2023-03-20T17:13:12.132Z,100385.72
2023-03-20T17:15:41.871Z,100381.41
2023-03-20T17:18:12.992Z,100384.25
2023-03-20T17:20:43.607Z,100391.03
2023-03-20T17:23:13.109Z,100389.16
2023-03-20T17:25:42.372Z,100393.78
2023-03-20T17:28:17.386Z,100394.22
2023-03-20T17:30:46.439Z,100390.78
2023-03-20T17:33:14.851Z,100398.03
2023-03-20T17:35:43.561Z,100392.53
2023-03-20T17:38:15.927Z,100410.56
2023-03-20T17:40:45.329Z,100402.66
2023-03-20T17:43:14.256Z,100402.84
2023-03-20T17:45:42.541Z,100400.44
2023-03-20T17:48:15.830Z,100393.16
2023-03-20T17:50:45.955Z,100398.31
2023-03-20T17:53:17.779Z,100402.66
2023-03-20T17:55:47.599Z,100403.78
2023-03-20T17:58:19.943Z,100407.50
2023-03-20T18:00:48.630Z,100411.38
2023-03-20T18:03:18.311Z,100411.03
2023-03-20T18:05:46.776Z,100407.28
2023-03-20T18:08:16.256Z,100410.72
2023-03-20T18:10:45.773Z,100412.50
2023-03-20T18:13:18.705Z,100401.81
2023-03-20T18:15:47.664Z,100406.72
2023-03-20T18:18:15.995Z,100402.63
2023-03-20T18:20:44.178Z,100404.56
2023-03-20T18:23:13.102Z,100411.66
2023-03-20T18:25:42.434Z,100410.44
2023-03-20T18:28:15.350Z,100413.94
2023-03-20T18:30:46.188Z,100415.72
2023-03-20T18:33:13.944Z,100415.69
2023-03-20T18:35:41.875Z,100415.91
2023-03-20T18:38:11.286Z,100418.09
2023-03-20T18:40:43.814Z,100416.84
2023-03-20T18:43:11.895Z,100405.03
2023-03-20T18:45:41.185Z,100409.78
2023-03-20T18:51:14.913Z,100407.16
2023-03-20T18:53:43.011Z,100411.81
2023-03-20T18:56:13.989Z,100410.22
2023-03-20T18:58:41.820Z,100401.81
2023-03-20T19:01:11.370Z,100403.28
2023-03-20T19:03:40.557Z,100400.84
2023-03-20T19:06:12.673Z,100405.84
2023-03-20T19:08:41.820Z,100411.44
2023-03-20T19:11:14.858Z,100411.31
2023-03-20T19:13:44.951Z,100412.84
2023-03-20T19:16:20.785Z,100403.56
2023-03-20T19:18:50.916Z,100408.44
2023-03-20T19:21:19.211Z,100411.97
2023-03-20T19:23:48.254Z,100410.44
2023-03-20T19:26:17.618Z,100401.44
2023-03-20T19:28:46.148Z,100401.69
2023-03-20T19:31:14.274Z,100403.63
2023-03-20T19:33:42.108Z,100396.53
2023-03-20T19:36:19.462Z,100398.81
2023-03-20T19:38:48.624Z,100400.13
2023-03-20T19:41:16.147Z,100393.66
2023-03-20T19:43:52.543Z,100396.81
2023-03-20T19:46:38.655Z,100402.94
2023-03-20T19:49:17.417Z,100400.53
2023-03-20T19:51:46.169Z,100410.09
2023-03-20T19:54:15.150Z,100407.59
2023-03-20T19:56:45.407Z,100408.81
2023-03-20T19:59:16.193Z,100413.38
2023-03-20T20:01:45.721Z,100406.22
2023-03-20T20:04:13.870Z,100410.28
2023-03-20T20:06:42.080Z,100409.56
2023-03-20T20:09:12.187Z,100404.56
2023-03-20T20:11:41.367Z,100411.94
2023-03-20T20:14:10.525Z,100409.03
2023-03-20T20:16:43.103Z,100417.88
2023-03-20T20:19:11.731Z,100405.59
2023-03-20T20:24:27.910Z,100402.84
2023-03-20T20:27:15.346Z,100400.22
2023-03-20T20:29:44.421Z,100399.50
2023-03-20T20:32:12.342Z,100398.16
2023-03-20T20:40:18.960Z,100406.59
2023-03-20T20:42:52.026Z,100402.84
2023-03-20T20:45:21.243Z,100403.75
2023-03-20T20:47:50.665Z,100399.78
2023-03-20T20:50:20.059Z,100393.53
2023-03-20T20:52:47.810Z,100401.75
2023-03-20T20:55:24.594Z,100397.94
2023-03-20T20:57:55.646Z,100391.81
2023-03-20T21:00:37.176Z,100393.13
2023-03-20T21:03:13.642Z,100395.84
2023-03-20T21:05:43.237Z,100394.63
2023-03-20T21:08:12.115Z,100401.47
2023-03-20T21:10:39.777Z,100402.06
2023-03-20T21:13:09.406Z,100399.91
2023-03-20T21:15:37.536Z,100395.72
2023-03-20T21:18:05.836Z,100404.06
2023-03-20T21:20:34.205Z,100397.53
2023-03-20T21:23:02.314Z,100392.53
2023-03-20T21:25:40.044Z,100390.50
2023-03-20T21:28:10.570Z,100393.69
2023-03-20T21:30:44.089Z,100391.69
2023-03-20T21:33:19.078Z,100393.41
2023-03-20T21:35:47.072Z,100388.25
2023-03-20T21:41:08.270Z,100386.72
2023-03-20T21:43:40.879Z,100386.72
2023-03-20T21:49:47.801Z,100391.06
2023-03-20T22:03:09.150Z,100380.66
2023-03-20T22:09:19.733Z,100385.59
2023-03-20T22:15:03.637Z,100391.50
2023-03-20T22:20:31.399Z,100382.88
2023-03-20T22:25:53.015Z,100388.13
2023-03-20T22:31:36.760Z,100384.44
2023-03-20T22:34:39.405Z,100389.72
2023-03-20T22:37:30.473Z,100388.41
2023-03-20T22:42:47.402Z,100385.38
2023-03-20T22:45:02.149Z,100385.75
2023-03-20T22:47:31.024Z,100383.50
2023-03-20T22:50:00.168Z,100381.56
2023-03-20T22:52:41.594Z,100383.31
2023-03-20T22:55:16.766Z,100376.53
2023-03-20T22:57:56.221Z,100376.75
2023-03-20T23:00:34.402Z,100374.16
2023-03-20T23:03:17.287Z,100370.50
2023-03-20T23:05:52.558Z,100371.03
2023-03-20T23:08:20.815Z,100364.78
2023-03-20T23:10:49.694Z,100359.56
2023-03-20T23:13:18.530Z,100359.47
2023-03-20T23:15:48.046Z,100367.34
2023-03-20T23:18:16.450Z,100360.03
2023-03-20T23:20:44.651Z,100363.75
2023-03-20T23:23:14.127Z,100363.69
2023-03-20T23:25:42.118Z,100361.38
2023-03-20T23:28:10.965Z,100359.50
2023-03-20T23:30:48.210Z,100356.59
2023-03-20T23:33:19.789Z,100361.28
2023-03-20T23:35:48.791Z,100363.28
2023-03-20T23:38:19.027Z,100363.59
2023-03-20T23:40:49.472Z,100358.00
2023-03-20T23:43:17.568Z,100355.03
2023-03-20T23:45:45.639Z,100345.34
2023-03-20T23:48:13.478Z,100344.50
2023-03-20T23:50:52.093Z,100345.25
2023-03-20T23:53:24.711Z,100341.00
2023-03-20T23:55:53.791Z,100351.22
2023-03-20T23:58:22.520Z,100339.31
